createdAt,value
2023-04-11T00:01:11.145Z,1.95
2023-04-11T00:06:12.641Z,2.45
2023-04-11T00:11:14.319Z,2.38
2023-04-11T00:16:16.856Z,2.15
2023-04-11T00:21:18.430Z,2.25
2023-04-11T00:26:21.755Z,2.72
2023-04-11T00:31:23.315Z,2.25
2023-04-11T00:36:24.912Z,2.03
2023-04-11T00:41:26.476Z,2.22
2023-04-11T00:46:28.381Z,2.15
2023-04-11T00:51:29.957Z,1.85
2023-04-11T00:56:31.461Z,2.10
2023-04-11T01:01:36.338Z,2.50
2023-04-11T01:06:38.135Z,2.20
2023-04-11T01:11:39.778Z,2.03
2023-04-11T01:16:41.632Z,1.67
2023-04-11T01:21:43.123Z,2.08
2023-04-11T01:26:44.772Z,2.47
2023-04-11T01:31:46.353Z,2.63
2023-04-11T01:36:47.927Z,2.40
2023-04-11T01:41:50.770Z,2.13
2023-04-11T01:46:52.426Z,1.70
2023-04-11T01:51:53.952Z,2.58
2023-04-11T01:56:55.989Z,2.20
2023-04-11T02:01:57.709Z,2.85
2023-04-11T02:06:59.219Z,2.78
2023-04-11T02:12:01.045Z,2.35
2023-04-11T02:17:04.950Z,2.83
2023-04-11T02:22:06.783Z,2.88
2023-04-11T02:27:08.596Z,2.55
2023-04-11T02:32:10.173Z,2.72
2023-04-11T02:37:11.742Z,2.80
2023-04-11T02:42:13.372Z,2.40
2023-04-11T02:47:15.033Z,2.13
2023-04-11T02:52:18.116Z,2.15
2023-04-11T02:57:19.604Z,2.15
2023-04-11T03:02:23.454Z,2.47
2023-04-11T03:07:25.151Z,2.30
2023-04-11T03:12:26.691Z,2.17
2023-04-11T03:17:28.344Z,2.45
2023-04-11T03:22:29.866Z,2.13
2023-04-11T03:27:31.324Z,2.15
2023-04-11T03:32:32.812Z,2.38
2023-04-11T03:37:34.328Z,2.78
2023-04-11T03:42:36.143Z,2.35
2023-04-11T03:47:38.336Z,2.70
2023-04-11T03:52:39.879Z,2.80
2023-04-11T03:57:41.361Z,2.22
2023-04-11T04:02:43.041Z,2.60
2023-04-11T04:07:44.670Z,2.03
2023-04-11T04:12:46.366Z,2.95
2023-04-11T04:17:47.907Z,2.50
2023-04-11T04:22:49.381Z,2.90
2023-04-11T04:27:54.015Z,2.83
2023-04-11T04:32:59.002Z,3.38
2023-04-11T04:38:06.707Z,2.63
2023-04-11T04:43:11.715Z,3.13
2023-04-11T04:48:14.200Z,3.10
2023-04-11T04:53:15.655Z,2.58
2023-04-11T04:58:17.125Z,2.97
2023-04-11T05:03:20.986Z,2.88
2023-04-11T05:08:22.614Z,4.13
2023-04-11T05:13:24.086Z,3.42
2023-04-11T05:18:25.530Z,3.75
2023-04-11T05:23:26.986Z,4.07
2023-04-11T05:28:28.443Z,5.65
2023-04-11T05:33:29.950Z,4.10
2023-04-11T05:38:34.837Z,4.28
2023-04-11T05:43:36.679Z,2.92
2023-04-11T05:48:38.380Z,2.78
2023-04-11T05:53:39.939Z,2.03
2023-04-11T05:58:42.779Z,2.28
2023-04-11T06:03:47.640Z,1.75
2023-04-11T06:08:49.478Z,2.10
2023-04-11T06:13:51.001Z,2.30
2023-04-11T06:18:52.609Z,1.98
2023-04-11T06:23:54.245Z,2.45
2023-04-11T06:28:56.104Z,2.55
2023-04-11T06:33:57.867Z,1.98
2023-04-11T06:38:59.493Z,2.47
2023-04-11T06:44:01.267Z,2.13
2023-04-11T06:49:03.518Z,1.75
2023-04-11T06:54:06.402Z,2.10
2023-04-11T06:59:07.946Z,1.80
2023-04-11T07:04:09.544Z,1.98
2023-04-11T07:09:12.653Z,2.13
2023-04-11T07:14:14.185Z,1.85
2023-04-11T07:19:15.719Z,2.10
2023-04-11T07:24:18.734Z,1.77
2023-04-11T07:29:20.460Z,1.77
2023-04-11T07:34:21.943Z,1.30
2023-04-11T07:39:23.398Z,1.33
2023-04-11T07:44:26.803Z,1.70
2023-04-11T07:49:28.884Z,1.25
2023-04-11T07:54:30.440Z,1.73
2023-04-11T07:59:31.991Z,1.17
2023-04-11T08:04:34.150Z,1.40
2023-04-11T08:09:35.956Z,1.52
2023-04-11T08:14:37.485Z,1.40
2023-04-11T08:19:39.139Z,1.40
2023-04-11T08:24:40.641Z,1.35
2023-04-11T08:29:42.103Z,1.60
2023-04-11T08:34:43.702Z,1.42
2023-04-11T08:39:45.363Z,1.50
2023-04-11T08:44:50.899Z,1.90
2023-04-11T08:49:52.977Z,1.30
2023-04-11T08:54:57.504Z,1.50
2023-04-11T09:00:19.151Z,1.63
2023-04-11T09:05:30.139Z,1.67
2023-04-11T09:10:32.007Z,2.53
2023-04-11T09:15:33.494Z,1.63
2023-04-11T09:20:35.014Z,1.98
2023-04-11T09:25:43.960Z,1.50
2023-04-11T09:30:50.561Z,1.35
2023-04-11T09:35:53.055Z,1.90
2023-04-11T09:40:55.263Z,2.30
2023-04-11T09:46:10.348Z,1.80
2023-04-11T09:51:14.123Z,1.80
2023-04-11T09:56:24.133Z,2.08
2023-04-11T10:01:25.843Z,2.17
2023-04-11T10:06:31.976Z,2.60
2023-04-11T10:11:33.579Z,2.30
2023-04-11T10:16:35.162Z,2.03
2023-04-11T10:21:41.912Z,2.05
2023-04-11T10:26:50.817Z,1.58
2023-04-11T10:32:24.981Z,2.47
2023-04-11T10:37:36.234Z,1.70
2023-04-11T10:42:44.774Z,1.45
2023-04-11T10:47:51.825Z,1.80
2023-04-11T10:52:53.995Z,1.73
2023-04-11T10:58:11.535Z,2.50
2023-04-11T11:03:16.576Z,2.15
2023-04-11T11:08:26.454Z,1.98
2023-04-11T11:13:44.177Z,2.30
2023-04-11T11:18:46.991Z,2.10
2023-04-11T11:23:58.707Z,2.13
2023-04-11T11:29:00.383Z,1.65
2023-04-11T11:34:18.344Z,2.00
2023-04-11T11:39:23.641Z,3.15
2023-04-11T11:44:26.267Z,4.57
2023-04-11T11:49:27.816Z,3.05
2023-04-11T11:54:29.269Z,2.90
2023-04-11T11:59:30.791Z,3.30
2023-04-11T12:04:32.525Z,2.65
2023-04-11T12:09:34.084Z,3.13
2023-04-11T12:14:35.580Z,2.65
2023-04-11T12:19:37.027Z,3.28
2023-04-11T12:24:38.487Z,4.22
2023-04-11T12:29:39.938Z,3.92
2023-04-11T12:34:41.744Z,4.30
2023-04-11T12:39:43.191Z,4.50
2023-04-11T12:44:44.718Z,4.65
2023-04-11T12:49:46.322Z,3.83
2023-04-11T12:54:47.846Z,3.33
2023-04-11T12:59:49.521Z,3.95
2023-04-11T13:04:54.433Z,4.38
2023-04-11T13:09:56.142Z,2.97
2023-04-11T13:14:57.634Z,2.97
2023-04-11T13:19:59.123Z,3.47
2023-04-11T13:25:00.737Z,3.15
2023-04-11T13:30:04.832Z,3.05
2023-04-11T13:35:07.143Z,3.58
2023-04-11T13:40:11.151Z,3.15
2023-04-11T13:45:12.803Z,3.22
2023-04-11T13:50:14.416Z,3.00
2023-04-11T13:55:15.979Z,3.08
2023-04-11T14:00:17.787Z,3.05
2023-04-11T14:05:19.450Z,3.17
2023-04-11T14:10:21.122Z,3.20
2023-04-11T14:15:22.712Z,4.00
2023-04-11T14:20:24.954Z,3.88
2023-04-11T14:25:26.511Z,3.45
2023-04-11T14:30:28.066Z,3.38
2023-04-11T14:35:29.652Z,3.47
2023-04-11T14:40:31.174Z,3.80
2023-04-11T14:45:33.149Z,4.10
2023-04-11T14:50:34.839Z,4.50
2023-04-11T14:55:38.267Z,4.75
2023-04-11T15:00:40.419Z,3.95
2023-04-11T15:05:41.886Z,3.83
2023-04-11T15:10:43.448Z,4.10
2023-04-11T15:15:44.954Z,4.00
2023-04-11T15:20:46.438Z,4.68
2023-04-11T15:25:54.668Z,4.00
2023-04-11T15:30:56.357Z,4.38
2023-04-11T15:36:00.322Z,3.92
2023-04-11T15:41:02.556Z,4.03
2023-04-11T15:46:04.517Z,3.22
2023-04-11T15:51:10.325Z,3.97
2023-04-11T15:56:13.527Z,3.53
2023-04-11T16:01:22.806Z,3.90
2023-04-11T16:06:24.453Z,3.57
2023-04-11T16:11:26.056Z,3.58
2023-04-11T16:16:27.638Z,4.05
2023-04-11T16:21:29.158Z,4.38
2023-04-11T16:26:30.821Z,4.30
2023-04-11T16:31:32.431Z,3.72
2023-04-11T16:36:34.643Z,3.67
2023-04-11T16:41:36.554Z,4.07
2023-04-11T16:46:41.869Z,4.78
2023-04-11T16:51:43.342Z,4.32
2023-04-11T16:56:44.854Z,4.68
2023-04-11T17:01:46.892Z,4.63
2023-04-11T17:06:49.814Z,4.68
2023-04-11T17:11:51.399Z,5.32
2023-04-11T17:16:53.079Z,5.25
2023-04-11T17:21:54.563Z,5.28
2023-04-11T17:26:57.087Z,5.22
2023-04-11T17:31:58.569Z,4.80
2023-04-11T17:37:00.039Z,5.03
2023-04-11T17:42:01.562Z,5.00
2023-04-11T17:47:03.397Z,5.07
2023-04-11T17:52:05.009Z,5.75
2023-04-11T17:57:06.878Z,5.45
2023-04-11T18:02:08.459Z,5.75
2023-04-11T18:07:10.071Z,6.05
2023-04-11T18:12:11.527Z,6.60
2023-04-11T18:17:13.039Z,5.45
2023-04-11T18:22:14.530Z,5.85
2023-04-11T18:27:16.403Z,5.95
2023-04-11T18:32:19.801Z,7.05
2023-04-11T18:37:23.850Z,5.97
2023-04-11T18:42:25.647Z,5.65
2023-04-11T18:47:27.237Z,5.55
2023-04-11T18:52:29.227Z,5.03
2023-04-11T18:57:33.922Z,5.55
2023-04-11T19:02:37.145Z,5.53
2023-04-11T19:07:42.238Z,5.50
2023-04-11T19:12:43.692Z,5.20
2023-04-11T19:17:45.316Z,4.68
2023-04-11T19:22:46.888Z,5.15
2023-04-11T19:27:48.982Z,4.80
2023-04-11T19:32:50.775Z,5.25
2023-04-11T19:37:52.378Z,4.93
2023-04-11T19:42:53.851Z,4.82
2023-04-11T19:47:55.473Z,4.95
2023-04-11T19:52:57.030Z,4.72
2023-04-11T19:57:58.912Z,4.60
2023-04-11T20:03:02.553Z,5.47
2023-04-11T20:08:04.281Z,5.72
2023-04-11T20:13:05.927Z,5.00
2023-04-11T20:18:07.669Z,3.97
2023-04-11T20:23:09.172Z,3.67
2023-04-11T20:28:10.791Z,4.78
2023-04-11T20:33:12.235Z,4.00
2023-04-11T20:38:14.030Z,4.18
2023-04-11T20:43:16.866Z,4.20
2023-04-11T20:48:20.002Z,4.03
2023-04-11T20:53:21.545Z,3.88
2023-04-11T20:58:23.023Z,4.28
2023-04-11T21:03:24.650Z,4.45
2023-04-11T21:08:26.353Z,4.00
2023-04-11T21:13:27.823Z,4.82
2023-04-11T21:18:29.296Z,4.45
2023-04-11T21:23:30.842Z,4.53
2023-04-11T21:28:32.595Z,4.25
2023-04-11T21:33:34.058Z,4.13
2023-04-11T21:38:35.498Z,4.28
2023-04-11T21:43:37.001Z,4.50
2023-04-11T21:48:38.784Z,4.65
2023-04-11T21:53:40.461Z,4.03
2023-04-11T21:58:41.920Z,4.38
2023-04-11T22:03:44.267Z,4.40
2023-04-11T22:08:50.418Z,4.72
2023-04-11T22:13:52.773Z,4.75
2023-04-11T22:18:54.495Z,4.82
2023-04-11T22:23:57.200Z,4.85
2023-04-11T22:28:59.977Z,4.35
2023-04-11T22:34:02.887Z,4.80
2023-04-11T22:39:07.988Z,4.78
2023-04-11T22:44:09.683Z,4.63
2023-04-11T22:49:11.350Z,4.38
2023-04-11T22:54:13.504Z,4.63
2023-04-11T22:59:15.003Z,4.55
2023-04-11T23:04:16.537Z,4.53
2023-04-11T23:09:18.264Z,5.20
2023-04-11T23:14:21.145Z,4.85
2023-04-11T23:19:22.868Z,5.22
2023-04-11T23:24:24.330Z,4.88
2023-04-11T23:29:26.162Z,5.13
2023-04-11T23:34:27.652Z,4.95
2023-04-11T23:39:29.565Z,4.47
2023-04-11T23:44:31.316Z,4.88
2023-04-11T23:49:33.163Z,4.97
2023-04-11T23:54:35.774Z,5.13
2023-04-11T23:59:37.285Z,4.75
